Weather at Melbourne Essendon Airport

Public forecast

Using degrees Celsius for public forecast. Weather courtesy of forecast.io.

Current aviation weather report (METAR) for Melbourne Essendon Airport

Retrieved 2022/01/24 02:00 UTC (43 minutes ago):

YMEN 240200Z AUTO 01006KT 300V060 9999 // NCD 33/13 Q1009

Closest aviation forecast (TAF) to Melbourne Essendon Airport

Closest forecast is Melbourne International Airport, 4.3 nm (8.0 km) NW. Retrieved 2022-01-24 00:34 UTC (2 hours ago):

TAF YMML 232319Z 2400/2506 01012KT CAVOK FM240400 17013KT CAVOK FM240500 16017KT CAVOK FM240900 27005KT CAVOK FM242100 01014KT CAVOK FM250400 17014KT CAVOK FM250500 16017KT CAVOK